Time;durP1;ratioP1;P1;durP2;ratioP2;P2;SDS_P1;SDS_P2;PMS_P1;PMS_P2;Temp;Humidity;BMP_temperature;BMP_pressure;BME280_temperature;BME280_humidity;BME280_pressure;Samples;Min_cycle;Max_cycle;Signal;HPM_P1;HPM_P2
2023/06/28 00:01:11;;;;;;;6.07;3.03;;;;;;;;;;5135384;28;20475;-56
2023/06/28 00:03:39;;;;;;;2.00;1.80;;;15.70;99.90;;;;;;5134838;28;20427;-57
2023/06/28 00:06:06;;;;;;;2.80;1.80;;;;;;;;;;5134233;28;20520;-59
2023/06/28 00:08:40;;;;;;;4.90;2.10;;;15.70;99.90;;;;;;5131945;28;20527;-55
2023/06/28 00:11:07;;;;;;;4.50;2.23;;;;;;;;;;5132196;28;20448;-55
2023/06/28 00:13:34;;;;;;;4.03;2.60;;;;;;;;;;5134739;28;20465;-56
2023/06/28 00:16:02;;;;;;;3.23;2.10;;;;;;;;;;5135543;28;20437;-56
2023/06/28 00:18:30;;;;;;;5.30;2.13;;;;;;;;;;5133512;28;20429;-54
2023/06/28 00:20:58;;;;;;;10.53;2.30;;;15.60;99.90;;;;;;5136105;28;20444;-52
2023/06/28 00:23:25;;;;;;;3.83;1.70;;;;;;;;;;5135806;28;20433;-55
2023/06/28 00:25:52;;;;;;;5.97;2.30;;;;;;;;;;5136146;28;20456;-58
2023/06/28 00:28:19;;;;;;;2.93;1.90;;;;;;;;;;5135964;28;20499;-56
2023/06/28 00:30:46;;;;;;;2.77;2.33;;;;;;;;;;5135434;28;20441;-59
2023/06/28 00:33:19;;;;;;;7.13;2.23;;;;;;;;;;5133401;28;20492;-58
2023/06/28 00:35:46;;;;;;;5.87;2.23;;;;;;;;;;5134837;28;20421;-54
2023/06/28 00:38:15;;;;;;;4.63;2.40;;;15.10;99.90;;;;;;5131174;28;20436;-58
2023/06/28 00:40:42;;;;;;;9.00;2.27;;;;;;;;;;5136606;28;20451;-52
2023/06/28 00:43:09;;;;;;;2.47;2.13;;;;;;;;;;5136650;28;20459;-48
2023/06/28 00:45:36;;;;;;;3.30;2.27;;;;;;;;;;5136687;28;20499;-50
2023/06/28 00:48:03;;;;;;;3.60;2.80;;;;;;;;;;5136898;28;20464;-47
2023/06/28 00:50:31;;;;;;;7.73;1.67;;;15.40;99.90;;;;;;5136375;28;20436;-49
2023/06/28 00:52:58;;;;;;;2.87;1.90;;;;;;;;;;5136984;28;20480;-48
2023/06/28 00:55:26;;;;;;;3.20;2.13;;;15.20;99.90;;;;;;5137062;28;20440;-51
2023/06/28 00:57:53;;;;;;;7.73;2.90;;;;;;;;;;5138605;28;20530;-56
2023/06/28 01:00:21;;;;;;;10.30;2.17;;;15.40;99.90;;;;;;5139249;28;20481;-58
2023/06/28 01:02:50;;;;;;;3.03;2.27;;;15.50;99.90;;;;;;5139246;28;20444;-53
2023/06/28 01:05:20;;;;;;;12.10;2.20;;;15.20;99.90;;;;;;5139473;28;20471;-57
2023/06/28 01:07:48;;;;;;;2.53;2.20;;;15.30;99.90;;;;;;5135533;28;20506;-57
2023/06/28 01:10:20;;;;;;;3.60;2.37;;;15.40;99.90;;;;;;5139347;28;20510;-53
2023/06/28 01:12:49;;;;;;;4.30;2.03;;;;;;;;;;5136414;28;20454;-58
2023/06/28 01:15:16;;;;;;;2.60;1.83;;;;;;;;;;5136443;28;20437;-59
2023/06/28 01:17:43;;;;;;;3.47;2.33;;;;;;;;;;5135242;28;20476;-54
2023/06/28 01:20:11;;;;;;;4.47;2.30;;;15.30;99.90;;;;;;5138053;28;20436;-53
2023/06/28 01:22:41;;;;;;;5.80;2.30;;;15.30;99.90;;;;;;5139588;28;20460;-56
2023/06/28 01:25:10;;;;;;;9.13;2.57;;;15.10;99.90;;;;;;5138870;28;20471;-58
2023/06/28 01:27:44;;;;;;;3.60;1.90;;;15.30;99.90;;;;;;5136240;28;20531;-55
2023/06/28 01:30:14;;;;;;;7.23;2.30;;;15.40;99.90;;;;;;5139741;28;20425;-57
2023/06/28 01:32:42;;;;;;;4.83;3.17;;;15.30;99.90;;;;;;5136798;28;20968;-54
2023/06/28 01:35:10;;;;;;;2.90;2.10;;;15.90;99.90;;;;;;5139749;28;20420;-52
2023/06/28 01:37:42;;;;;;;2.50;2.17;;;15.30;99.90;;;;;;5139530;28;20459;-56
2023/06/28 01:40:12;;;;;;;2.60;2.03;;;15.10;99.90;;;;;;5137936;28;20456;-57
2023/06/28 01:42:40;;;;;;;9.20;3.07;;;;;;;;;;5138513;28;20425;-57
2023/06/28 01:45:08;;;;;;;3.50;2.20;;;15.10;99.90;;;;;;5139052;28;20464;-54
2023/06/28 01:47:35;;;;;;;3.10;1.97;;;;;;;;;;5139286;28;20473;-55
2023/06/28 01:50:04;;;;;;;2.90;2.70;;;;;;;;;;5139254;28;20479;-55
2023/06/28 01:52:33;;;;;;;4.20;2.67;;;15.30;99.90;;;;;;5137040;28;20465;-55
2023/06/28 01:55:01;;;;;;;5.37;2.40;;;;;;;;;;5137996;28;20437;-55
2023/06/28 01:57:30;;;;;;;7.93;3.40;;;;;;;;;;5136232;28;20467;-58
2023/06/28 01:59:57;;;;;;;6.73;2.27;;;;;;;;;;5137818;28;20441;-54
2023/06/28 02:02:30;;;;;;;6.83;2.10;;;;;;;;;;5138372;28;20449;-55
2023/06/28 02:04:57;;;;;;;6.27;3.40;;;;;;;;;;5139005;28;20460;-55
2023/06/28 02:07:24;;;;;;;3.97;2.40;;;15.30;99.90;;;;;;5138858;28;20818;-55
2023/06/28 02:09:51;;;;;;;5.47;2.97;;;;;;;;;;5137671;28;20444;-56
2023/06/28 02:12:18;;;;;;;9.30;3.13;;;;;;;;;;5138513;28;20491;-58
2023/06/28 02:14:48;;;;;;;12.80;2.70;;;15.20;99.90;;;;;;5135883;28;20432;-57
2023/06/28 02:17:15;;;;;;;6.47;3.00;;;;;;;;;;5135336;28;20448;-57
2023/06/28 02:19:42;;;;;;;5.70;3.17;;;;;;;;;;5137721;28;20452;-52
2023/06/28 02:22:09;;;;;;;9.10;2.40;;;15.10;99.90;;;;;;5137340;28;20470;-57
2023/06/28 02:24:36;;;;;;;4.80;2.27;;;;;;;;;;5135775;28;20463;-55
2023/06/28 02:27:08;;;;;;;2.27;1.80;;;15.70;99.90;;;;;;5135334;28;20447;-56
2023/06/28 02:29:40;;;;;;;8.57;2.23;;;15.10;99.90;;;;;;5137589;28;20457;-55
2023/06/28 02:32:10;;;;;;;4.47;2.77;;;15.30;99.90;;;;;;5137768;28;20464;-60
2023/06/28 02:34:38;;;;;;;4.80;2.70;;;;;;;;;;5137477;28;20425;-59
2023/06/28 02:37:06;;;;;;;3.17;2.30;;;14.90;99.90;;;;;;5135100;28;20433;-57
2023/06/28 02:39:33;;;;;;;8.40;2.60;;;;;;;;;;5136658;28;20531;-57
2023/06/28 02:42:00;;;;;;;2.90;1.97;;;;;;;;;;5135670;28;20441;-54
2023/06/28 02:44:27;;;;;;;3.60;2.30;;;15.30;99.90;;;;;;5137246;28;20468;-58
2023/06/28 02:46:54;;;;;;;2.20;2.00;;;15.40;99.90;;;;;;5135674;28;20436;-58
2023/06/28 02:49:22;;;;;;;4.60;3.27;;;15.30;99.90;;;;;;5135949;28;20511;-58
2023/06/28 02:51:49;;;;;;;7.33;2.40;;;;;;;;;;5135658;28;20491;-58
2023/06/28 02:54:16;;;;;;;6.60;2.23;;;;;;;;;;5135190;28;20433;-54
2023/06/28 02:56:43;;;;;;;9.43;2.57;;;;;;;;;;5135172;28;20515;-56
2023/06/28 02:59:13;;;;;;;3.90;2.47;;;15.10;99.90;;;;;;5137703;28;20436;-54
2023/06/28 03:01:39;;;;;;;4.80;2.00;;;15.20;99.90;;;;;;5137625;28;20448;-53
2023/06/28 03:04:10;;;;;;;4.17;2.20;;;15.10;99.90;;;;;;5135933;28;20465;-51
2023/06/28 03:06:38;;;;;;;4.10;2.60;;;15.10;99.90;;;;;;5135534;28;20432;-53
2023/06/28 03:09:05;;;;;;;9.07;2.57;;;;;;;;;;5137490;28;20469;-50
2023/06/28 03:11:32;;;;;;;5.63;2.20;;;15.30;99.90;;;;;;5136101;28;20445;-48
2023/06/28 03:14:01;;;;;;;4.70;2.40;;;15.40;99.90;;;;;;5137250;28;20432;-50
2023/06/28 03:16:28;;;;;;;3.50;1.70;;;15.50;99.90;;;;;;5135836;28;20476;-50
2023/06/28 03:18:55;;;;;;;4.17;2.20;;;15.20;99.90;;;;;;5136590;28;20421;-56
2023/06/28 03:21:25;;;;;;;5.20;1.93;;;;;;;;;;5137460;28;20424;-53
2023/06/28 03:23:53;;;;;;;2.37;1.90;;;;;;;;;;5136858;28;20461;-53
2023/06/28 03:26:21;;;;;;;3.33;2.30;;;;;;;;;;5134875;28;20437;-58
2023/06/28 03:28:48;;;;;;;3.07;2.70;;;;;;;;;;5135378;28;20496;-53
2023/06/28 03:31:15;;;;;;;5.67;2.73;;;15.20;99.90;;;;;;5135782;28;20464;-59
2023/06/28 03:33:42;;;;;;;2.03;1.83;;;;;;;;;;5134615;28;20436;-57
2023/06/28 03:36:09;;;;;;;2.43;2.00;;;15.40;99.90;;;;;;5137455;28;20440;-58
2023/06/28 03:38:35;;;;;;;9.40;2.10;;;15.20;99.90;;;;;;5137032;28;20440;-54
2023/06/28 03:41:04;;;;;;;6.33;2.23;;;14.90;99.90;;;;;;5138076;28;20440;-57
2023/06/28 03:43:31;;;;;;;3.80;2.50;;;15.30;99.90;;;;;;5137087;28;20459;-55
2023/06/28 03:45:58;;;;;;;3.67;2.43;;;;;;;;;;5134713;28;20425;-54
2023/06/28 03:48:25;;;;;;;7.57;2.60;;;;;;;;;;5136860;28;20480;-56
2023/06/28 03:50:52;;;;;;;5.50;2.47;;;;;;;;;;5134218;28;20495;-56
2023/06/28 03:53:21;;;;;;;7.73;2.20;;;15.30;99.90;;;;;;5134985;28;20441;-58
2023/06/28 03:55:48;;;;;;;4.90;2.43;;;15.20;99.90;;;;;;5136195;28;20470;-52
2023/06/28 03:58:16;;;;;;;4.77;3.00;;;15.20;99.90;;;;;;5134182;28;20509;-57
2023/06/28 04:00:44;;;;;;;4.77;2.40;;;15.40;99.90;;;;;;5136109;28;20486;-55
2023/06/28 04:03:11;;;;;;;4.90;2.17;;;15.40;99.90;;;;;;5136713;28;20490;-57
2023/06/28 04:05:38;;;;;;;5.53;2.23;;;;;;;;;;5136682;28;20444;-58
2023/06/28 04:08:08;;;;;;;6.93;2.80;;;15.10;99.90;;;;;;5133542;28;20476;-56
2023/06/28 04:10:37;;;;;;;6.90;2.30;;;15.40;99.90;;;;;;5134173;28;20468;-57
2023/06/28 04:13:06;;;;;;;4.40;2.20;;;15.20;99.90;;;;;;5133553;28;20950;-56
2023/06/28 04:15:34;;;;;;;5.00;1.93;;;15.30;99.90;;;;;;5126781;28;20505;-57
2023/06/28 04:18:01;;;;;;;7.00;2.20;;;15.60;99.90;;;;;;5131911;28;20493;-58
2023/06/28 04:20:28;;;;;;;6.00;2.40;;;15.50;99.90;;;;;;5136013;28;20470;-53
2023/06/28 04:22:57;;;;;;;5.20;2.60;;;15.30;99.90;;;;;;5136972;28;20468;-53
2023/06/28 04:25:24;;;;;;;3.53;2.10;;;;;;;;;;5135922;28;20444;-57
2023/06/28 04:27:51;;;;;;;3.33;2.60;;;;;;;;;;5137141;28;20473;-56
2023/06/28 04:30:18;;;;;;;2.10;1.90;;;15.40;99.90;;;;;;5136762;28;20463;-53
2023/06/28 04:32:47;;;;;;;3.90;2.10;;;15.30;99.90;;;;;;5139461;28;20416;-54
2023/06/28 04:35:14;;;;;;;5.67;2.30;;;15.10;99.90;;;;;;5140731;28;20424;-57
2023/06/28 04:37:43;;;;;;;6.97;2.80;;;15.90;99.90;;;;;;5140853;28;20444;-55
2023/06/28 04:40:11;;;;;;;4.27;2.40;;;15.50;99.90;;;;;;5140963;28;20424;-56
2023/06/28 04:42:40;;;;;;;6.33;2.00;;;15.40;99.90;;;;;;5140641;28;20444;-56
2023/06/28 04:45:09;;;;;;;3.37;2.27;;;15.50;99.90;;;;;;5138680;28;20421;-55
2023/06/28 04:47:36;;;;;;;5.90;2.80;;;15.80;99.90;;;;;;5140657;28;20480;-54
2023/06/28 04:50:05;;;;;;;2.00;1.70;;;15.50;99.90;;;;;;5139593;28;20512;-54
2023/06/28 04:52:35;;;;;;;4.87;2.90;;;15.70;99.90;;;;;;5136631;28;20444;-57
2023/06/28 04:55:02;;;;;;;3.33;2.30;;;15.80;99.90;;;;;;5136336;28;20433;-57
2023/06/28 04:57:29;;;;;;;2.00;1.80;;;15.80;99.90;;;;;;5135699;28;20487;-56
2023/06/28 04:59:57;;;;;;;7.70;2.37;;;15.90;99.90;;;;;;5136439;28;20432;-57
2023/06/28 05:02:27;;;;;;;3.33;2.17;;;15.90;99.90;;;;;;5137134;28;20451;-54
2023/06/28 05:04:54;;;;;;;2.50;2.07;;;;;;;;;;5140711;28;20428;-56
2023/06/28 05:07:23;;;;;;;3.80;2.10;;;15.90;99.90;;;;;;5140113;28;20437;-57
2023/06/28 05:09:49;;;;;;;3.20;1.73;;;15.60;99.90;;;;;;5138316;28;20488;-54
2023/06/28 05:12:17;;;;;;;6.50;2.97;;;;;;;;;;5140418;28;20441;-57
2023/06/28 05:14:43;;;;;;;5.37;1.90;;;16.00;99.90;;;;;;5139078;28;20460;-54
2023/06/28 05:17:10;;;;;;;9.53;2.30;;;16.00;99.90;;;;;;5137297;28;20496;-58
2023/06/28 05:19:37;;;;;;;5.40;2.20;;;;;;;;;;5138948;28;20436;-58
2023/06/28 05:22:05;;;;;;;6.30;2.33;;;;;;;;;;5136671;28;20472;-55
2023/06/28 05:24:33;;;;;;;7.23;2.70;;;16.20;99.90;;;;;;5134174;28;20444;-55
2023/06/28 05:27:00;;;;;;;7.77;1.67;;;;;;;;;;5140593;28;20460;-53
2023/06/28 05:29:27;;;;;;;7.13;2.50;;;;;;;;;;5139720;28;20485;-55
2023/06/28 05:31:54;;;;;;;5.60;2.70;;;;;;;;;;5139782;28;20396;-50
2023/06/28 05:34:23;;;;;;;10.43;2.53;;;16.40;99.90;;;;;;5139942;28;20444;-57
2023/06/28 05:36:51;;;;;;;5.40;2.87;;;;;;;;;;5139669;28;20460;-56
2023/06/28 05:39:17;;;;;;;3.50;1.97;;;16.40;99.90;;;;;;5139304;28;20440;-53
2023/06/28 05:41:46;;;;;;;2.77;2.57;;;16.90;99.90;;;;;;5139327;28;20460;-51
2023/06/28 05:44:15;;;;;;;6.10;2.27;;;16.00;99.90;;;;;;5136156;28;20437;-57
2023/06/28 05:46:41;;;;;;;7.90;2.03;;;16.40;99.90;;;;;;5139415;28;20445;-55
2023/06/28 05:49:08;;;;;;;3.67;2.53;;;16.50;99.90;;;;;;5139196;28;20520;-56
2023/06/28 05:51:36;;;;;;;3.63;2.67;;;;;;;;;;5134671;28;20425;-55
2023/06/28 05:54:15;;;;;;;7.10;2.90;;;16.60;99.90;;;;;;5135962;28;20540;-54
2023/06/28 05:56:43;;;;;;;8.40;2.20;;;16.40;99.90;;;;;;5136668;28;20525;-58
2023/06/28 05:59:11;;;;;;;4.00;2.27;;;16.70;99.90;;;;;;5134697;28;20429;-54
2023/06/28 06:01:38;;;;;;;7.90;2.83;;;;;;;;;;5136206;28;20452;-56
2023/06/28 06:04:05;;;;;;;2.70;2.20;;;16.50;99.90;;;;;;5137927;28;20420;-55
2023/06/28 06:06:32;;;;;;;10.03;2.60;;;16.40;99.90;;;;;;5138995;28;20480;-52
2023/06/28 06:08:59;;;;;;;6.80;2.20;;;;;;;;;;5133742;28;20535;-56
2023/06/28 06:11:26;;;;;;;2.03;1.60;;;;;;;;;;5135351;28;20480;-51
2023/06/28 06:13:53;;;;;;;3.30;2.27;;;16.50;99.90;;;;;;5138731;28;20429;-57
2023/06/28 06:16:24;;;;;;;3.50;2.47;;;;;;;;;;5138358;28;20464;-57
2023/06/28 06:18:51;;;;;;;7.50;2.60;;;;;;;;;;5132524;28;20468;-57
2023/06/28 06:21:19;;;;;;;5.43;2.37;;;;;;;;;;5132245;28;20440;-56
2023/06/28 06:23:46;;;;;;;4.70;2.97;;;;;;;;;;5133721;28;20413;-51
2023/06/28 06:26:15;;;;;;;5.03;2.30;;;17.40;99.90;;;;;;5137137;28;20441;-56
2023/06/28 06:28:42;;;;;;;4.90;2.13;;;18.10;99.90;;;;;;5137103;28;20559;-53
2023/06/28 06:31:13;;;;;;;7.40;2.30;;;;;;;;;;5131451;28;20458;-56
2023/06/28 06:33:41;;;;;;;1.60;1.50;;;17.80;99.90;;;;;;5131436;28;20433;-58
2023/06/28 06:36:08;;;;;;;4.70;1.80;;;18.10;99.90;;;;;;5133052;28;20488;-56
2023/06/28 06:38:37;;;;;;;3.83;1.93;;;18.00;99.90;;;;;;5130699;28;20515;-52
2023/06/28 06:41:04;;;;;;;2.50;1.97;;;;;;;;;;5137369;28;20437;-48
2023/06/28 06:43:31;;;;;;;2.30;2.10;;;;;;;;;;5133689;28;20479;-55
2023/06/28 06:45:59;;;;;;;4.10;3.03;;;;;;;;;;5130729;28;20496;-55
2023/06/28 06:48:26;;;;;;;4.27;1.90;;;18.00;99.90;;;;;;5133439;28;20587;-57
2023/06/28 06:50:54;;;;;;;3.97;1.90;;;;;;;;;;5131628;28;20495;-58
2023/06/28 06:53:23;;;;;;;4.87;1.80;;;17.80;99.90;;;;;;5135050;28;20456;-55
2023/06/28 06:55:50;;;;;;;4.00;1.83;;;;;;;;;;5136331;28;20460;-54
2023/06/28 06:58:17;;;;;;;6.00;2.10;;;;;;;;;;5136903;28;20468;-54
2023/06/28 07:00:46;;;;;;;7.77;2.30;;;;;;;;;;5137455;28;20436;-56
2023/06/28 07:03:13;;;;;;;2.43;2.13;;;17.90;99.90;;;;;;5136207;28;20489;-54
2023/06/28 07:05:40;;;;;;;2.70;1.77;;;;;;;;;;5134946;28;20429;-52
2023/06/28 07:08:08;;;;;;;2.60;1.30;;;17.90;99.90;;;;;;5137370;28;20424;-56
2023/06/28 07:10:35;;;;;;;1.70;1.50;;;;;;;;;;5133195;28;20480;-54
2023/06/28 07:13:02;;;;;;;2.23;2.00;;;18.10;99.90;;;;;;5126980;28;20437;-58
2023/06/28 07:15:30;;;;;;;3.87;2.00;;;;;;;;;;5132209;28;20491;-53
2023/06/28 07:17:57;;;;;;;3.40;2.43;;;;;;;;;;5127664;28;20476;-55
2023/06/28 07:20:24;;;;;;;4.83;1.90;;;;;;;;;;5133671;28;20447;-56
2023/06/28 07:22:51;;;;;;;3.57;1.73;;;;;;;;;;5126237;28;20884;-55
2023/06/28 07:25:19;;;;;;;3.53;1.50;;;20.50;99.90;;;;;;5124447;28;20823;-55
2023/06/28 07:27:46;;;;;;;3.83;2.07;;;21.30;99.90;;;;;;5123723;28;20492;-56
2023/06/28 07:30:16;;;;;;;3.40;1.40;;;21.90;99.90;;;;;;5131319;28;20502;-57
2023/06/28 07:32:43;;;;;;;2.60;2.03;;;;;;;;;;5121926;28;20786;-56
2023/06/28 07:35:10;;;;;;;2.70;1.80;;;;;;;;;;5129019;28;20444;-55
2023/06/28 07:37:37;;;;;;;5.43;2.20;;;;;;;;;;5122365;28;20447;-56
2023/06/28 07:40:05;;;;;;;2.00;1.80;;;22.50;99.90;;;;;;5128795;28;20506;-56
2023/06/28 07:42:33;;;;;;;8.10;1.83;;;23.40;99.90;;;;;;5123640;28;20469;-57
2023/06/28 07:45:01;;;;;;;3.00;1.60;;;;;;;;;;5136938;28;20485;-52
2023/06/28 07:47:28;;;;;;;3.33;1.60;;;;;;;;;;5131952;28;20497;-55
2023/06/28 07:49:55;;;;;;;3.43;2.03;;;24.70;99.90;;;;;;5129272;28;20492;-57
2023/06/28 07:52:22;;;;;;;2.67;2.03;;;24.30;99.90;;;;;;5129796;28;20425;-56
2023/06/28 07:54:49;;;;;;;2.43;1.83;;;23.80;99.90;;;;;;5130085;28;20416;-55
2023/06/28 07:57:16;;;;;;;5.10;2.90;;;;;;;;;;5130707;28;20452;-57
2023/06/28 07:59:44;;;;;;;3.80;2.10;;;23.20;99.90;;;;;;5127159;28;20520;-56
2023/06/28 08:02:11;;;;;;;4.23;2.13;;;22.70;99.90;;;;;;5121134;28;20529;-57
2023/06/28 08:04:38;;;;;;;4.20;2.40;;;22.40;99.90;;;;;;5129320;28;20448;-56
2023/06/28 08:07:05;;;;;;;4.60;1.50;;;22.00;99.90;;;;;;5133208;28;20463;-56
2023/06/28 08:09:32;;;;;;;2.43;1.80;;;;;;;;;;5127966;28;20800;-58
2023/06/28 08:11:59;;;;;;;3.03;1.57;;;;;;;;;;5131710;28;20440;-57
2023/06/28 08:14:28;;;;;;;3.80;2.33;;;;;;;;;;5133900;28;20491;-53
2023/06/28 08:16:56;;;;;;;2.30;1.63;;;21.60;99.90;;;;;;5141233;28;20493;-58
2023/06/28 08:19:23;;;;;;;2.50;1.80;;;21.40;99.90;;;;;;5141130;28;20461;-55
2023/06/28 08:21:50;;;;;;;2.33;1.50;;;21.60;99.90;;;;;;5140867;28;20433;-56
2023/06/28 08:24:17;;;;;;;5.57;2.13;;;;;;;;;;5141302;28;20448;-57
2023/06/28 08:26:45;;;;;;;4.20;1.70;;;22.80;99.90;;;;;;5138871;28;20471;-57
2023/06/28 08:29:15;;;;;;;3.80;2.13;;;24.30;99.90;;;;;;5135151;28;20505;-58
2023/06/28 08:31:43;;;;;;;7.00;1.93;;;;;;;;;;5132886;28;20474;-57
2023/06/28 08:34:11;;;;;;;2.03;1.70;;;26.40;99.90;;;;;;5131839;28;20425;-55
2023/06/28 08:36:38;;;;;;;3.90;1.73;;;27.40;99.90;;;;;;5130158;28;20527;-56
2023/06/28 08:39:05;;;;;;;2.40;1.60;;;27.70;99.90;;;;;;5123071;28;20460;-57
2023/06/28 08:41:32;;;;;;;1.67;1.47;;;27.70;99.90;;;;;;5123922;28;20527;-57
2023/06/28 08:44:01;;;;;;;5.43;2.60;;;28.30;99.90;;;;;;5123331;28;20487;-55
2023/06/28 08:46:29;;;;;;;4.50;1.70;;;28.80;81.00;;;;;;5129883;28;20480;-56
2023/06/28 08:49:02;;;;;;;3.27;1.63;;;28.60;77.40;;;;;;5137490;28;20440;-57
2023/06/28 08:51:31;;;;;;;3.73;1.67;;;28.20;99.90;;;;;;5138336;28;20524;-58
2023/06/28 08:53:58;;;;;;;3.97;1.60;;;;;;;;;;5132516;28;20788;-55
2023/06/28 08:56:25;;;;;;;2.43;1.67;;;;;;;;;;5128955;28;20479;-58
2023/06/28 08:58:54;;;;;;;2.40;1.57;;;27.10;76.10;;;;;;5132689;28;20436;-58
2023/06/28 09:01:22;;;;;;;2.80;1.40;;;26.60;97.90;;;;;;5130248;28;20505;-58
2023/06/28 09:03:50;;;;;;;3.20;1.30;;;26.10;99.90;;;;;;5128252;28;20455;-58
2023/06/28 09:06:17;;;;;;;1.80;1.40;;;;;;;;;;5131495;28;20519;-56
2023/06/28 09:08:46;;;;;;;4.70;1.70;;;24.80;87.20;;;;;;5131650;28;20504;-57
2023/06/28 09:11:15;;;;;;;1.70;1.50;;;24.20;99.90;;;;;;5135447;28;20507;-53
2023/06/28 09:13:42;;;;;;;4.23;1.50;;;;;;;;;;5133773;28;20483;-57
2023/06/28 09:16:10;;;;;;;3.73;1.47;;;23.70;90.60;;;;;;5131482;28;20436;-57
2023/06/28 09:18:37;;;;;;;3.37;2.33;;;23.20;99.90;;;;;;5136238;28;20420;-55
2023/06/28 09:21:04;;;;;;;3.07;1.60;;;23.20;99.90;;;;;;5138547;28;20465;-57
2023/06/28 09:23:33;;;;;;;1.67;1.27;;;23.90;99.90;;;;;;5134186;28;20448;-55
2023/06/28 09:26:02;;;;;;;5.70;1.57;;;24.30;99.90;;;;;;5133875;28;20467;-57
2023/06/28 09:28:35;;;;;;;2.37;1.70;;;24.40;94.40;;;;;;5131803;28;20475;-58
2023/06/28 09:31:04;;;;;;;3.70;1.63;;;24.30;92.90;;;;;;5133678;28;20464;-57
2023/06/28 09:33:32;;;;;;;1.40;1.10;;;25.00;95.90;;;;;;5132513;28;20502;-55
2023/06/28 09:36:02;;;;;;;3.00;1.90;;;25.00;99.90;;;;;;5136898;28;20456;-57
2023/06/28 09:38:33;;;;;;;1.93;1.50;;;25.70;90.80;;;;;;5139018;28;20451;-53
2023/06/28 09:41:03;;;;;;;3.87;1.80;;;26.10;99.90;;;;;;5138651;28;20435;-53
2023/06/28 09:43:32;;;;;;;2.73;1.60;;;27.20;99.90;;;;;;5128019;28;20451;-57
2023/06/28 09:46:11;;;;;;;4.20;1.43;;;27.40;99.90;;;;;;5136348;28;20487;-55
2023/06/28 09:48:38;;;;;;;2.53;2.33;;;27.30;99.90;;;;;;5134267;28;20431;-56
2023/06/28 09:51:06;;;;;;;4.00;1.80;;;26.70;85.10;;;;;;5136534;28;20476;-56
2023/06/28 09:53:33;;;;;;;1.40;1.30;;;26.10;99.90;;;;;;5128386;28;20452;-56
2023/06/28 09:56:00;;;;;;;4.20;1.40;;;25.50;99.90;;;;;;5127610;28;20508;-57
2023/06/28 09:58:30;;;;;;;3.77;2.10;;;24.90;89.40;;;;;;5126325;28;20503;-54
2023/06/28 10:00:58;;;;;;;1.87;1.50;;;;;;;;;;5130831;28;20468;-56
2023/06/28 10:03:27;;;;;;;2.87;1.77;;;24.90;99.90;;;;;;5133730;28;20484;-53
2023/06/28 10:05:57;;;;;;;1.83;1.53;;;25.60;99.90;;;;;;5131942;28;20425;-57
2023/06/28 10:08:25;;;;;;;2.10;1.77;;;25.70;99.90;;;;;;5133361;28;20444;-59
2023/06/28 10:10:55;;;;;;;1.60;1.37;;;25.70;99.90;;;;;;5132323;28;20480;-55
2023/06/28 10:13:23;;;;;;;2.30;1.70;;;25.40;84.60;;;;;;5125703;28;20773;-57
2023/06/28 10:15:57;;;;;;;3.60;1.97;;;24.90;99.90;;;;;;5125269;28;20524;-56
2023/06/28 10:18:25;;;;;;;1.60;1.40;;;25.80;99.90;;;;;;5134950;28;20432;-54
2023/06/28 10:20:52;;;;;;;1.63;1.17;;;;;;;;;;5129591;28;20437;-56
2023/06/28 10:23:19;;;;;;;2.10;1.80;;;24.80;99.90;;;;;;5127144;28;20484;-50
2023/06/28 10:25:47;;;;;;;2.90;1.70;;;24.30;99.90;;;;;;5136862;28;20468;-56
2023/06/28 10:28:14;;;;;;;2.40;1.47;;;;;;;;;;5133944;28;20555;-53
2023/06/28 10:30:42;;;;;;;1.33;1.03;;;25.80;99.90;;;;;;5132845;28;20476;-57
2023/06/28 10:33:10;;;;;;;2.37;1.90;;;26.20;88.60;;;;;;5136711;28;20412;-55
2023/06/28 10:35:37;;;;;;;2.87;1.60;;;26.60;91.00;;;;;;5129201;28;20463;-58
2023/06/28 10:38:05;;;;;;;2.80;1.90;;;26.20;99.90;;;;;;5128478;28;20470;-56
2023/06/28 10:40:32;;;;;;;3.27;1.70;;;;;;;;;;5126238;28;20501;-54
2023/06/28 10:42:59;;;;;;;2.90;1.80;;;25.00;99.90;;;;;;5130111;28;20460;-55
2023/06/28 10:45:37;;;;;;;5.27;1.77;;;25.40;99.90;;;;;;5128726;28;20460;-58
2023/06/28 10:48:06;;;;;;;2.93;1.50;;;25.90;99.90;;;;;;5123090;28;20482;-58
2023/06/28 10:50:42;;;;;;;2.80;1.63;;;25.20;88.30;;;;;;5130546;28;20480;-56
2023/06/28 10:53:20;;;;;;;4.27;3.10;;;24.30;99.90;;;;;;5121181;28;20531;-57
2023/06/28 10:56:09;;;;;;;2.70;1.77;;;24.30;90.40;;;;;;5134450;28;20435;-54
2023/06/28 10:58:38;;;;;;;2.70;1.60;;;24.40;99.90;;;;;;5133677;28;20460;-57
2023/06/28 11:01:07;;;;;;;4.17;2.37;;;24.20;94.90;;;;;;5133994;28;20470;-58
2023/06/28 11:03:41;;;;;;;2.60;2.13;;;25.30;99.90;;;;;;5130459;28;20543;-58
2023/06/28 11:06:11;;;;;;;4.70;2.00;;;25.60;99.90;;;;;;5130405;28;20432;-58
2023/06/28 11:08:40;;;;;;;4.07;1.80;;;25.40;90.30;;;;;;5129994;28;20440;-57
2023/06/28 11:11:09;;;;;;;2.73;1.97;;;25.20;99.90;;;;;;5128990;28;20483;-55
2023/06/28 11:13:48;;;;;;;2.93;1.60;;;25.00;99.90;;;;;;5129051;28;20440;-56
2023/06/28 11:16:19;;;;;;;2.03;1.87;;;25.10;87.40;;;;;;5127356;28;20459;-58
2023/06/28 11:18:47;;;;;;;3.50;2.23;;;24.90;86.60;;;;;;5134442;28;20413;-56
2023/06/28 11:21:17;;;;;;;2.43;1.50;;;24.80;99.90;;;;;;5134420;28;20467;-56
2023/06/28 11:23:46;;;;;;;2.23;1.67;;;24.60;91.30;;;;;;5130525;28;20475;-54
2023/06/28 11:26:15;;;;;;;2.50;1.80;;;24.50;92.10;;;;;;5134976;28;20476;-55
2023/06/28 11:28:50;;;;;;;2.17;1.70;;;24.30;99.90;;;;;;5128004;28;20495;-55
2023/06/28 11:31:20;;;;;;;6.10;1.67;;;24.40;99.90;;;;;;5131142;28;20471;-58
2023/06/28 11:33:48;;;;;;;1.50;1.40;;;24.70;99.90;;;;;;5126538;28;20474;-57
2023/06/28 11:36:18;;;;;;;1.70;1.40;;;24.70;91.10;;;;;;5134913;28;20515;-56
2023/06/28 11:38:46;;;;;;;2.83;1.60;;;24.50;99.90;;;;;;5135831;28;20429;-56
2023/06/28 11:41:15;;;;;;;3.63;2.00;;;24.50;99.90;;;;;;5135870;28;20450;-55
2023/06/28 11:43:42;;;;;;;2.17;1.40;;;;;;;;;;5136087;28;20409;-53
2023/06/28 11:46:10;;;;;;;2.60;1.50;;;;;;;;;;5132035;28;20467;-56
2023/06/28 11:48:39;;;;;;;5.17;1.53;;;24.60;99.90;;;;;;5121183;28;20914;-56
2023/06/28 11:51:08;;;;;;;3.47;1.70;;;23.40;93.40;;;;;;5135241;28;20498;-57
2023/06/28 11:53:38;;;;;;;1.50;1.20;;;24.00;99.90;;;;;;5128117;28;20474;-55
2023/06/28 11:56:05;;;;;;;2.43;1.50;;;;;;;;;;5135727;28;20436;-53
2023/06/28 11:58:32;;;;;;;3.10;1.70;;;;;;;;;;5132962;28;20471;-59
2023/06/28 12:01:00;;;;;;;1.97;1.70;;;24.30;99.90;;;;;;5120816;28;20437;-58
2023/06/28 12:03:31;;;;;;;4.60;2.17;;;24.60;92.60;;;;;;5129761;28;20500;-56
2023/06/28 12:06:00;;;;;;;1.47;1.20;;;;;;;;;;5135387;28;20437;-55
2023/06/28 12:08:30;;;;;;;2.23;1.50;;;;;;;;;;5135582;28;20443;-54
2023/06/28 12:10:58;;;;;;;3.43;1.93;;;24.40;99.90;;;;;;5134210;28;20481;-56
2023/06/28 12:13:25;;;;;;;2.90;2.23;;;24.80;99.90;;;;;;5126785;28;20468;-58
2023/06/28 12:15:54;;;;;;;3.20;1.77;;;25.20;97.10;;;;;;5134862;28;20464;-58
2023/06/28 12:18:21;;;;;;;43.73;22.13;;;25.20;99.90;;;;;;5135875;28;20437;-58
2023/06/28 12:20:48;;;;;;;38.30;20.43;;;25.30;99.90;;;;;;5135578;28;20450;-56
2023/06/28 12:23:15;;;;;;;4.20;2.50;;;;;;;;;;5134998;28;20448;-56
2023/06/28 12:25:44;;;;;;;14.13;2.17;;;24.40;99.90;;;;;;5133879;28;20441;-54
2023/06/28 12:28:15;;;;;;;3.53;2.23;;;24.70;99.50;;;;;;5135604;28;20472;-57
2023/06/28 12:30:42;;;;;;;2.20;2.00;;;24.90;99.90;;;;;;5135911;28;20452;-56
2023/06/28 12:33:09;;;;;;;1.70;1.60;;;24.30;99.90;;;;;;5136061;28;20449;-58
2023/06/28 12:35:46;;;;;;;3.53;2.03;;;24.70;92.10;;;;;;5120564;28;20478;-58
2023/06/28 12:38:19;;;;;;;2.50;1.40;;;24.70;99.90;;;;;;5122196;28;20857;-58
2023/06/28 12:40:46;;;;;;;2.27;1.93;;;24.30;99.90;;;;;;5120491;28;20792;-59
2023/06/28 12:43:17;;;;;;;4.60;2.20;;;24.30;99.90;;;;;;5116124;28;20517;-58
2023/06/28 12:45:47;;;;;;;2.30;1.80;;;23.90;99.90;;;;;;5120276;28;20525;-57
2023/06/28 12:48:16;;;;;;;3.10;1.73;;;24.10;99.90;;;;;;5120991;28;20484;-55
2023/06/28 12:50:43;;;;;;;2.53;1.97;;;23.80;99.90;;;;;;5120695;28;20495;-58
2023/06/28 12:53:10;;;;;;;2.50;1.73;;;24.50;99.90;;;;;;5127261;28;20451;-59
2023/06/28 12:55:37;;;;;;;5.87;1.90;;;24.10;99.90;;;;;;5129206;28;20497;-57
2023/06/28 12:58:04;;;;;;;3.40;1.70;;;24.30;99.90;;;;;;5129992;28;20491;-58
2023/06/28 13:00:35;;;;;;;3.30;2.07;;;24.70;99.90;;;;;;5133272;28;20444;-55
2023/06/28 13:03:02;;;;;;;1.90;1.80;;;25.20;99.90;;;;;;5131837;28;20498;-58
2023/06/28 13:05:29;;;;;;;2.90;1.77;;;;;;;;;;5132053;28;20436;-59
2023/06/28 13:07:57;;;;;;;2.23;2.03;;;24.50;99.90;;;;;;5131548;28;20463;-55
2023/06/28 13:10:24;;;;;;;2.70;1.97;;;;;;;;;;5130413;28;20512;-56
2023/06/28 13:12:51;;;;;;;2.33;1.57;;;;;;;;;;5138860;28;20479;-55
2023/06/28 13:15:18;;;;;;;6.23;1.70;;;;;;;;;;5137500;28;20471;-58
2023/06/28 13:17:47;;;;;;;2.80;1.60;;;24.60;99.90;;;;;;5131878;28;20444;-59
2023/06/28 13:20:14;;;;;;;4.07;1.67;;;24.90;99.90;;;;;;5136601;28;20452;-55
2023/06/28 13:22:41;;;;;;;2.90;2.27;;;24.80;99.90;;;;;;5131793;28;20440;-54
2023/06/28 13:25:11;;;;;;;2.37;2.17;;;24.60;99.90;;;;;;5131390;28;20480;-58
2023/06/28 13:27:37;;;;;;;3.03;1.67;;;25.10;99.90;;;;;;5125771;28;20468;-56